Terminal Aerodrome Forecast
Issued by NWS Twin Cities, MN

Home | Current Version | Previous Version | Graphics & Text | Print | Product List | Glossary On
Versions: 1 2 3 4 5 6 7 8 9 10 11 12 13 14 15 16 17 18 19 20 21 22 23 24 25 26
000
FTUS43 KMPX 222300
TAFEAU
TAF
KEAU 222336Z 2300/2324 14009KT P6SM SCT050 BKN080
     FM230800 17008KT 6SM -SHRA BR SCT020 OVC040
      TEMPO 2308/2312 4SM SHRA BR OVC020
     FM231200 18005KT 5SM -RA BR SCT006 OVC012
     FM231400 22005KT P6SM BKN015 OVC025
     FM231800 24007KT P6SM SCT030=

USA.gov is the U.S. government's official web portal to all federal, state and local government web resources and services.